Time;durP1;ratioP1;P1;durP2;ratioP2;P2;SDS_P1;SDS_P2;PMS_P1;PMS_P2;Temp;Humidity;BMP_temperature;BMP_pressure;BME280_temperature;BME280_humidity;BME280_pressure;Samples;Min_cycle;Max_cycle;Signal;HPM_P1;HPM_P2
2021/03/28 00:01:07;;;;;;;12.90;4.35;;;4.50;99.90;;;;;;5122063;27;20053;-82
2021/03/28 00:03:45;;;;;;;7.57;3.75;;;4.50;99.90;;;;;;5134339;27;20043;-79
2021/03/28 00:06:28;;;;;;;18.85;5.65;;;4.40;99.90;;;;;;5144149;27;20070;-79
2021/03/28 00:09:22;;;;;;;11.15;4.85;;;4.40;99.90;;;;;;5135115;27;20031;-79
2021/03/28 00:12:17;;;;;;;13.27;4.18;;;4.40;99.90;;;;;;5126962;27;20055;-80
2021/03/28 00:14:45;;;;;;;10.25;5.10;;;4.40;99.90;;;;;;5133206;27;20063;-79
2021/03/28 00:17:20;;;;;;;10.48;4.70;;;4.40;99.90;;;;;;5116415;27;20612;-80
2021/03/28 00:20:12;;;;;;;9.25;4.38;;;4.80;99.90;;;;;;5114466;27;20156;-80
2021/03/28 00:22:48;;;;;;;14.95;4.75;;;4.30;99.90;;;;;;5124384;27;20043;-80
2021/03/28 00:25:16;;;;;;;8.85;4.18;;;4.30;99.90;;;;;;5124608;27;20391;-79
2021/03/28 00:27:49;;;;;;;11.63;4.72;;;4.30;99.90;;;;;;5130328;27;20043;-80
2021/03/28 00:30:15;;;;;;;9.48;4.30;;;4.30;99.90;;;;;;5142741;27;20035;-80
2021/03/28 00:32:44;;;;;;;14.15;4.50;;;4.30;99.90;;;;;;5137870;27;20088;-80
2021/03/28 00:35:21;;;;;;;12.90;4.22;;;4.60;99.90;;;;;;5123115;27;20036;-78
2021/03/28 00:37:57;;;;;;;;;;;4.30;99.90;;;;;;5130002;27;20121;-77
2021/03/28 00:40:26;;;;;;;11.55;4.85;;;4.80;99.90;;;;;;5130124;27;19967;-79
2021/03/28 00:43:22;;;;;;;9.70;5.28;;;4.60;99.90;;;;;;5107191;27;20046;-80
2021/03/28 00:45:53;;;;;;;12.98;4.70;;;4.40;99.90;;;;;;5132777;27;20113;-78
2021/03/28 00:48:28;;;;;;;14.30;4.93;;;4.50;99.90;;;;;;5138601;27;20509;-80
2021/03/28 00:51:12;;;;;;;17.60;5.85;;;4.50;99.90;;;;;;5132798;27;20038;-76
2021/03/28 00:53:45;;;;;;;12.98;5.22;;;4.50;99.90;;;;;;5137862;27;20033;-82
2021/03/28 00:56:19;;;;;;;13.18;5.40;;;4.50;99.90;;;;;;5116303;27;20493;-82
2021/03/28 00:59:14;;;;;;;13.77;5.00;;;4.80;99.90;;;;;;5102306;27;20125;-81
2021/03/28 01:01:52;;;;;;;14.77;5.07;;;4.50;99.90;;;;;;5078562;27;20039;-78
2021/03/28 01:04:39;;;;;;;10.18;4.97;;;4.60;99.90;;;;;;5124057;27;20036;-78
2021/03/28 01:07:16;;;;;;;11.65;5.00;;;4.60;99.90;;;;;;5118258;27;20039;-77
2021/03/28 01:10:17;;;;;;;14.13;4.93;;;4.60;99.90;;;;;;5106107;27;20042;-77
2021/03/28 01:12:57;;;;;;;15.32;5.03;;;4.70;99.90;;;;;;5131755;27;20067;-79
2021/03/28 01:15:47;;;;;;;10.48;4.80;;;4.70;99.90;;;;;;5130516;27;20047;-78
2021/03/28 01:18:27;;;;;;;11.65;5.03;;;4.70;99.90;;;;;;5132484;27;20039;-76
2021/03/28 01:21:06;;;;;;;11.20;5.57;;;4.70;99.90;;;;;;5123273;27;20085;-76
2021/03/28 01:23:42;;;;;;;14.00;5.10;;;4.60;99.90;;;;;;5123103;27;20036;-79
2021/03/28 01:26:56;;;;;;;10.95;5.20;;;4.60;99.90;;;;;;5139128;27;20087;-82
2021/03/28 01:29:31;;;;;;;14.20;6.05;;;4.60;99.90;;;;;;5042442;28;20123;-75
2021/03/28 01:32:22;;;;;;;13.38;5.35;;;4.60;99.90;;;;;;5034173;28;20522;-78
2021/03/28 01:35:12;;;;;;;18.05;5.15;;;4.60;99.90;;;;;;5081038;28;20492;-78
2021/03/28 01:38:02;;;;;;;13.90;5.47;;;4.60;99.90;;;;;;5072613;27;20047;-81
2021/03/28 01:40:37;;;;;;;10.55;5.32;;;4.60;99.90;;;;;;5120104;27;20037;-80
2021/03/28 01:43:18;;;;;;;12.32;5.30;;;4.70;99.90;;;;;;5132461;27;20042;-75
2021/03/28 01:45:44;;;;;;;10.48;5.68;;;4.70;99.90;;;;;;5095348;28;20100;-77
2021/03/28 01:48:39;;;;;;;17.13;5.57;;;4.80;99.90;;;;;;5124877;27;20042;-78
2021/03/28 01:51:33;;;;;;;11.88;5.18;;;4.80;99.90;;;;;;5090372;27;20064;-79
2021/03/28 01:54:31;;;;;;;15.00;5.93;;;4.90;99.90;;;;;;5108584;27;20059;-79
2021/03/28 01:57:22;;;;;;;14.85;5.82;;;4.90;99.90;;;;;;5123273;27;20027;-77
2021/03/28 01:59:51;;;;;;;19.20;6.30;;;4.90;99.90;;;;;;5108920;27;20035;-77
2021/03/28 02:02:42;;;;;;;15.95;5.47;;;4.90;99.90;;;;;;5135727;27;20426;-82
2021/03/28 02:05:13;;;;;;;15.43;6.28;;;5.00;99.90;;;;;;5112968;27;20042;-76
2021/03/28 02:07:48;;;;;;;19.33;5.45;;;5.00;99.90;;;;;;5113872;27;20464;-79
2021/03/28 02:10:50;;;;;;;20.17;6.55;;;5.00;99.90;;;;;;5099985;27;20042;-79
2021/03/28 02:13:42;;;;;;;17.50;6.10;;;5.10;99.90;;;;;;5148131;27;20356;-78
2021/03/28 02:16:44;;;;;;;16.42;5.60;;;5.10;99.90;;;;;;5147963;27;20088;-78
2021/03/28 02:19:51;;;;;;;17.67;6.55;;;5.10;99.90;;;;;;5123751;27;20047;-80
2021/03/28 02:22:25;;;;;;;18.88;5.80;;;5.20;99.90;;;;;;5110635;28;20185;-75
2021/03/28 02:24:58;;;;;;;13.93;5.82;;;5.10;99.90;;;;;;5145961;27;20039;-75
2021/03/28 02:27:39;;;;;;;16.00;6.10;;;5.10;99.90;;;;;;5126422;27;20456;-79
2021/03/28 02:30:34;;;;;;;16.58;5.82;;;5.20;99.90;;;;;;5125902;27;20483;-78
2021/03/28 02:33:24;;;;;;;14.70;5.75;;;5.20;99.90;;;;;;5130148;28;20064;-79
2021/03/28 02:35:56;;;;;;;20.13;6.45;;;5.20;99.90;;;;;;5127916;27;20047;-78
2021/03/28 02:38:22;;;;;;;17.95;6.55;;;5.40;99.90;;;;;;5126575;27;20042;-77
2021/03/28 02:41:13;;;;;;;16.48;6.47;;;5.10;99.90;;;;;;5146957;27;20160;-76
2021/03/28 02:43:48;;;;;;;22.35;6.25;;;5.10;99.90;;;;;;5130349;27;20428;-78
2021/03/28 02:46:26;;;;;;;13.38;5.97;;;5.10;99.90;;;;;;5139811;27;20031;-79
2021/03/28 02:49:13;;;;;;;12.63;5.63;;;5.20;99.90;;;;;;5132372;28;20379;-78
2021/03/28 02:51:38;;;;;;;;;;;5.20;99.90;;;;;;5132159;28;20062;-78
2021/03/28 02:54:23;;;;;;;15.82;6.85;;;5.30;99.90;;;;;;5132243;28;19958;-78
2021/03/28 02:57:04;;;;;;;18.75;6.57;;;5.30;99.90;;;;;;5128579;27;20046;-78
2021/03/28 02:59:39;;;;;;;18.00;6.82;;;5.20;99.90;;;;;;5140989;27;20039;-78
2021/03/28 03:02:23;;;;;;;11.30;6.03;;;5.30;99.90;;;;;;5127046;28;20139;-82
2021/03/28 03:05:05;;;;;;;13.18;6.00;;;5.30;99.90;;;;;;5116313;28;20084;-77
2021/03/28 03:07:50;;;;;;;13.70;5.93;;;5.80;99.90;;;;;;5106598;28;20042;-81
2021/03/28 03:10:26;;;;;;;12.95;5.43;;;5.30;99.90;;;;;;5118917;28;20055;-81
2021/03/28 03:12:57;;;;;;;16.75;6.22;;;5.30;99.90;;;;;;5128888;27;20051;-80
2021/03/28 03:15:37;;;;;;;17.50;6.65;;;5.20;99.90;;;;;;5123781;28;20489;-77
2021/03/28 03:18:40;;;;;;;18.45;6.82;;;5.20;99.90;;;;;;5127220;28;20035;-78
2021/03/28 03:21:06;;;;;;;11.63;6.07;;;5.30;99.90;;;;;;5113589;28;20092;-78
2021/03/28 03:23:49;;;;;;;15.85;6.15;;;5.30;99.90;;;;;;5120316;27;20046;-76
2021/03/28 03:26:43;;;;;;;15.10;6.03;;;5.40;99.90;;;;;;5124573;27;20582;-76
2021/03/28 03:29:28;;;;;;;21.25;6.43;;;5.40;99.90;;;;;;5123734;27;20507;-78
2021/03/28 03:32:17;;;;;;;15.13;6.53;;;5.50;99.90;;;;;;5116423;27;20039;-79
2021/03/28 03:35:04;;;;;;;19.20;5.72;;;5.50;99.90;;;;;;5134633;27;20526;-79
2021/03/28 03:38:00;;;;;;;10.63;5.82;;;5.50;99.90;;;;;;5098699;27;20535;-76
2021/03/28 03:40:44;;;;;;;19.30;6.20;;;5.40;99.90;;;;;;5138729;27;20054;-79
2021/03/28 03:43:34;;;;;;;11.70;6.25;;;5.40;99.90;;;;;;5150206;27;20039;-79
2021/03/28 03:46:03;;;;;;;14.38;6.55;;;5.40;99.90;;;;;;5111816;27;20096;-77
2021/03/28 03:48:47;;;;;;;13.40;6.55;;;5.40;99.90;;;;;;5136633;27;20035;-75
2021/03/28 03:51:34;;;;;;;13.70;6.18;;;5.40;99.90;;;;;;5116318;28;20056;-76
2021/03/28 03:54:12;;;;;;;10.10;5.97;;;5.50;99.90;;;;;;5116292;27;20066;-81
2021/03/28 03:56:53;;;;;;;14.88;6.82;;;5.60;99.90;;;;;;5115490;27;20031;-79
2021/03/28 03:59:29;;;;;;;15.73;5.82;;;5.50;99.90;;;;;;5132176;27;20095;-82
2021/03/28 04:02:32;;;;;;;15.13;6.90;;;5.50;99.90;;;;;;5128840;27;20032;-79
2021/03/28 04:05:17;;;;;;;15.60;6.07;;;5.50;99.90;;;;;;5135432;27;20042;-79
2021/03/28 04:08:01;;;;;;;15.77;6.18;;;5.60;99.90;;;;;;5114868;27;20162;-76
2021/03/28 04:10:32;;;;;;;12.02;5.43;;;5.60;99.90;;;;;;5112767;27;20062;-76
2021/03/28 04:13:19;;;;;;;8.48;4.97;;;5.50;99.90;;;;;;5105959;27;20047;-79
2021/03/28 04:15:57;;;;;;;14.23;5.88;;;5.60;99.90;;;;;;5086369;28;20036;-78
2021/03/28 04:18:55;;;;;;;12.35;6.53;;;5.60;99.90;;;;;;5102475;28;20039;-80
2021/03/28 04:21:28;;;;;;;13.70;5.28;;;5.70;99.90;;;;;;5081216;28;20047;-78
2021/03/28 04:24:19;;;;;;;14.80;5.90;;;5.40;99.90;;;;;;5110071;28;20169;-77
2021/03/28 04:26:44;;;;;;;20.15;5.97;;;5.70;99.90;;;;;;5092411;28;20032;-78
2021/03/28 04:29:14;;;;;;;15.10;6.25;;;5.80;99.90;;;;;;5103269;28;20127;-80
2021/03/28 04:32:09;;;;;;;13.63;6.05;;;5.80;99.90;;;;;;5095872;28;20039;-79
2021/03/28 04:34:37;;;;;;;13.00;5.53;;;5.70;99.90;;;;;;5097239;28;20045;-78
2021/03/28 04:37:32;;;;;;;11.98;5.43;;;5.60;99.90;;;;;;5107191;28;20419;-78
2021/03/28 04:40:25;;;;;;;11.85;5.47;;;5.50;99.90;;;;;;5093025;28;20153;-81
2021/03/28 04:43:06;;;;;;;13.60;5.43;;;5.50;99.90;;;;;;5087266;28;20381;-78
2021/03/28 04:45:54;;;;;;;12.77;5.90;;;5.40;99.90;;;;;;5092367;28;20051;-78
2021/03/28 04:48:25;;;;;;;13.68;5.88;;;5.40;99.90;;;;;;5100209;28;20111;-78
2021/03/28 04:51:18;;;;;;;14.20;6.00;;;5.60;99.90;;;;;;5088681;28;20040;-79
2021/03/28 04:54:10;;;;;;;16.65;6.97;;;5.40;99.90;;;;;;5095789;28;20032;-78
2021/03/28 04:57:00;;;;;;;11.40;5.75;;;5.50;99.90;;;;;;5103555;28;20043;-80
2021/03/28 04:59:47;;;;;;;18.88;6.53;;;5.50;99.90;;;;;;5101442;28;20046;-77
2021/03/28 05:02:30;;;;;;;20.50;6.05;;;5.40;99.90;;;;;;5089946;28;20118;-76
2021/03/28 05:05:14;;;;;;;13.73;6.00;;;5.30;99.90;;;;;;5107438;28;20094;-80
2021/03/28 05:07:58;;;;;;;15.32;5.55;;;5.30;99.90;;;;;;5092044;28;20052;-78
2021/03/28 05:10:46;;;;;;;14.20;5.82;;;5.20;99.90;;;;;;5086896;28;20456;-75
2021/03/28 05:13:30;;;;;;;;;;;5.20;99.90;;;;;;5117023;27;20120;-76
2021/03/28 05:16:28;;;;;;;12.77;5.70;;;5.20;99.90;;;;;;5114661;27;19930;-78
2021/03/28 05:19:35;;;;;;;15.43;6.00;;;5.30;99.90;;;;;;5128172;27;20049;-77
2021/03/28 05:22:09;;;;;;;13.20;5.90;;;5.20;99.90;;;;;;5111527;27;20660;-76
2021/03/28 05:24:54;;;;;;;15.57;6.90;;;5.10;99.90;;;;;;5125958;27;20046;-79
2021/03/28 05:27:32;;;;;;;16.98;6.03;;;5.10;99.90;;;;;;5119772;27;20040;-81
2021/03/28 05:30:26;;;;;;;24.35;6.50;;;5.10;99.90;;;;;;5127938;27;20130;-81
2021/03/28 05:33:19;;;;;;;16.65;7.15;;;5.00;99.90;;;;;;5111742;27;20042;-80
2021/03/28 05:36:08;;;;;;;16.10;6.40;;;5.10;99.90;;;;;;5114066;27;20030;-79
2021/03/28 05:39:11;;;;;;;17.55;6.28;;;5.10;99.90;;;;;;5102946;28;20063;-78
2021/03/28 05:41:56;;;;;;;10.98;5.82;;;5.20;99.90;;;;;;5101982;28;20116;-77
2021/03/28 05:45:00;;;;;;;13.80;6.00;;;5.30;99.90;;;;;;5137421;27;20119;-77
2021/03/28 05:47:54;;;;;;;10.88;5.60;;;5.20;99.90;;;;;;5121043;27;20031;-75
2021/03/28 05:51:12;;;;;;;16.00;5.82;;;5.30;99.90;;;;;;5144989;27;20035;-78
2021/03/28 05:53:59;;;;;;;16.58;6.00;;;5.30;99.90;;;;;;5040233;27;20051;-77
2021/03/28 05:56:32;;;;;;;13.73;6.40;;;5.30;99.90;;;;;;5127954;27;20043;-77
2021/03/28 05:59:00;;;;;;;14.10;6.40;;;5.40;99.90;;;;;;5112043;28;20027;-79
2021/03/28 06:01:45;;;;;;;14.10;6.55;;;5.40;99.90;;;;;;5121357;27;20110;-79
2021/03/28 06:04:42;;;;;;;14.68;6.60;;;5.50;99.90;;;;;;5153467;27;20413;-78
2021/03/28 06:07:29;;;;;;;12.80;6.28;;;5.50;99.90;;;;;;5130295;27;20039;-79
2021/03/28 06:10:26;;;;;;;15.25;7.35;;;5.60;99.90;;;;;;5132335;27;20084;-78
2021/03/28 06:13:30;;;;;;;14.30;6.20;;;5.70;99.90;;;;;;5131513;27;20095;-77
2021/03/28 06:16:06;;;;;;;13.15;5.97;;;5.80;99.90;;;;;;5113307;27;20035;-79
2021/03/28 06:18:54;;;;;;;14.25;5.55;;;5.80;99.90;;;;;;5131697;27;20031;-78
2021/03/28 06:21:41;;;;;;;13.43;6.00;;;5.80;99.90;;;;;;5131909;27;20039;-79
2021/03/28 06:24:07;;;;;;;14.00;6.10;;;5.80;99.90;;;;;;5114716;27;20038;-79
2021/03/28 06:27:05;;;;;;;12.30;5.85;;;5.80;99.90;;;;;;5143936;27;20479;-78
2021/03/28 06:29:52;;;;;;;20.63;6.47;;;5.90;99.90;;;;;;5109189;28;20107;-76
2021/03/28 06:32:56;;;;;;;13.63;5.22;;;5.90;99.90;;;;;;5131342;28;20043;-81
2021/03/28 06:35:56;;;;;;;12.32;5.95;;;6.00;99.90;;;;;;5118604;28;20058;-81
2021/03/28 06:38:40;;;;;;;12.82;5.80;;;6.10;99.90;;;;;;5132319;28;20042;-76
2021/03/28 06:41:18;;;;;;;14.50;6.03;;;6.40;99.90;;;;;;5102466;28;20118;-75
2021/03/28 06:44:10;;;;;;;13.20;5.03;;;6.50;99.90;;;;;;5131787;28;20430;-79
2021/03/28 06:47:05;;;;;;;12.77;5.57;;;6.60;99.90;;;;;;5139639;27;20062;-77
2021/03/28 06:49:31;;;;;;;10.73;5.15;;;6.70;99.90;;;;;;5097907;28;20049;-78
2021/03/28 06:52:14;;;;;;;11.38;6.15;;;6.80;99.90;;;;;;5099197;28;20039;-77
2021/03/28 06:54:52;;;;;;;12.48;5.45;;;6.90;99.90;;;;;;5111664;28;20032;-78
2021/03/28 06:57:18;;;;;;;11.75;5.68;;;6.90;99.90;;;;;;5130977;27;20035;-76
2021/03/28 07:00:09;;;;;;;10.90;5.25;;;7.10;99.90;;;;;;5113277;27;20027;-80
2021/03/28 07:03:03;;;;;;;11.68;5.90;;;7.10;99.90;;;;;;5128864;27;20042;-78
2021/03/28 07:05:37;;;;;;;11.85;5.15;;;7.30;99.90;;;;;;5111819;27;20035;-76
2021/03/28 07:08:24;;;;;;;16.40;5.85;;;7.30;99.90;;;;;;5127502;27;20031;-77
2021/03/28 07:11:29;;;;;;;16.00;5.78;;;7.30;99.90;;;;;;5139027;27;20043;-76
2021/03/28 07:14:35;;;;;;;11.45;5.50;;;7.40;99.90;;;;;;5128001;27;20055;-77
2021/03/28 07:17:29;;;;;;;9.95;4.38;;;7.50;99.90;;;;;;5106031;28;20100;-77
2021/03/28 07:20:12;;;;;;;11.52;5.47;;;7.60;99.90;;;;;;5122675;27;20035;-80
2021/03/28 07:22:50;;;;;;;14.05;4.93;;;7.60;99.90;;;;;;5119076;27;20380;-78
2021/03/28 07:25:45;;;;;;;13.30;5.43;;;7.60;99.90;;;;;;5115337;28;20477;-81
2021/03/28 07:28:35;;;;;;;11.55;4.57;;;7.70;99.90;;;;;;5119538;27;20114;-79
2021/03/28 07:31:31;;;;;;;11.32;4.65;;;7.70;99.90;;;;;;5133633;27;20057;-75
2021/03/28 07:34:01;;;;;;;;;;;7.80;99.90;;;;;;5102549;28;20429;-76
2021/03/28 07:37:18;;;;;;;11.45;5.45;;;7.80;99.90;;;;;;5115003;28;19919;-79
2021/03/28 07:40:05;;;;;;;15.20;4.75;;;7.80;99.90;;;;;;5076863;27;20047;-76
2021/03/28 07:42:49;;;;;;;8.80;5.20;;;7.90;99.90;;;;;;5114785;27;20283;-78
2021/03/28 07:45:39;;;;;;;10.27;4.80;;;8.00;99.90;;;;;;5111488;28;20035;-76
2021/03/28 07:48:17;;;;;;;15.32;4.53;;;8.00;99.90;;;;;;5119104;27;20035;-76
2021/03/28 07:51:10;;;;;;;10.52;4.57;;;8.10;99.90;;;;;;5126550;27;20049;-79
2021/03/28 07:53:42;;;;;;;14.90;4.43;;;8.10;99.90;;;;;;5113435;27;20032;-78
2021/03/28 07:56:32;;;;;;;9.73;4.90;;;8.20;99.90;;;;;;5115949;27;20321;-79
2021/03/28 07:59:11;;;;;;;7.65;3.60;;;8.30;99.90;;;;;;5114853;27;20038;-78
2021/03/28 08:02:05;;;;;;;8.65;4.13;;;8.30;99.90;;;;;;5131179;27;20060;-81
2021/03/28 08:04:41;;;;;;;9.13;3.80;;;8.50;99.90;;;;;;5115527;27;20035;-77
2021/03/28 08:07:25;;;;;;;13.23;3.75;;;8.60;99.90;;;;;;5122056;27;20039;-77
2021/03/28 08:10:15;;;;;;;10.77;4.55;;;8.80;99.90;;;;;;5116104;27;20039;-82
2021/03/28 08:13:09;;;;;;;8.18;3.30;;;9.00;99.90;;;;;;5116534;27;20059;-76
2021/03/28 08:15:53;;;;;;;10.48;3.80;;;9.10;99.90;;;;;;5127631;27;20059;-78
2021/03/28 08:18:25;;;;;;;9.48;3.75;;;9.20;99.90;;;;;;5137841;27;20039;-78
2021/03/28 08:21:18;;;;;;;10.23;3.80;;;9.20;99.90;;;;;;5111168;27;20039;-81
2021/03/28 08:24:02;;;;;;;8.95;3.88;;;9.30;99.90;;;;;;5115642;27;20142;-81
2021/03/28 08:27:02;;;;;;;9.88;4.13;;;9.30;99.90;;;;;;5126601;27;20027;-76
2021/03/28 08:29:52;;;;;;;7.68;3.88;;;9.40;99.90;;;;;;5133716;27;20038;-78
2021/03/28 08:32:57;;;;;;;9.68;3.80;;;9.40;99.90;;;;;;5127433;27;20387;-79
2021/03/28 08:35:27;;;;;;;8.30;3.42;;;9.50;99.90;;;;;;5072000;28;20457;-85
2021/03/28 08:38:03;;;;;;;9.38;3.50;;;9.50;99.90;;;;;;5112265;27;20448;-78
2021/03/28 08:40:31;;;;;;;9.67;3.87;;;9.50;99.90;;;;;;5135396;27;20039;-79
2021/03/28 08:43:22;;;;;;;10.60;3.22;;;9.50;99.90;;;;;;5105864;27;20308;-81
2021/03/28 08:46:03;;;;;;;8.18;2.75;;;9.60;99.90;;;;;;5132617;27;20062;-78
2021/03/28 08:48:45;;;;;;;7.93;3.70;;;9.70;99.90;;;;;;5125705;27;20050;-79
2021/03/28 08:51:21;;;;;;;7.05;3.40;;;9.80;99.90;;;;;;5133126;27;20043;-76
2021/03/28 08:53:59;;;;;;;7.03;3.00;;;9.90;99.90;;;;;;5110508;27;20064;-80
2021/03/28 08:56:36;;;;;;;9.77;3.67;;;10.00;99.90;;;;;;5133428;27;20043;-80
2021/03/28 08:59:05;;;;;;;8.10;3.55;;;10.00;99.90;;;;;;5151896;27;20031;-77
2021/03/28 09:01:48;;;;;;;7.47;3.33;;;10.00;99.90;;;;;;5143984;27;20322;-83
2021/03/28 09:04:32;;;;;;;6.40;3.38;;;10.10;99.90;;;;;;5133448;27;20035;-78
2021/03/28 09:07:12;;;;;;;8.75;3.13;;;10.10;99.80;;;;;;5123000;27;20476;-79
2021/03/28 09:10:04;;;;;;;6.28;3.20;;;10.10;99.90;;;;;;5123636;27;20031;-78
2021/03/28 09:12:36;;;;;;;5.57;3.10;;;10.20;99.60;;;;;;5132390;27;20049;-79
2021/03/28 09:15:26;;;;;;;7.97;3.50;;;10.30;99.20;;;;;;5134363;27;20035;-79
2021/03/28 09:18:27;;;;;;;9.30;3.35;;;10.40;98.40;;;;;;5128624;27;20035;-80
2021/03/28 09:20:55;;;;;;;9.00;3.28;;;10.60;98.60;;;;;;5127402;27;20026;-79
2021/03/28 09:23:23;;;;;;;8.32;3.97;;;10.70;97.50;;;;;;5134617;27;20380;-81
2021/03/28 09:26:06;;;;;;;7.07;3.25;;;10.80;97.30;;;;;;5119500;27;20036;-80
2021/03/28 09:29:08;;;;;;;7.45;3.63;;;10.90;96.90;;;;;;5113123;28;20058;-78
2021/03/28 09:31:58;;;;;;;9.35;3.30;;;11.00;95.90;;;;;;5112427;27;20118;-79
2021/03/28 09:34:52;;;;;;;7.57;3.05;;;11.10;95.90;;;;;;5118194;27;20422;-78
2021/03/28 09:37:25;;;;;;;8.15;3.13;;;11.20;95.80;;;;;;5119870;27;20050;-78
2021/03/28 09:40:02;;;;;;;9.10;3.22;;;11.40;96.30;;;;;;5130131;27;20822;-80
2021/03/28 09:43:01;;;;;;;10.48;3.70;;;11.40;95.00;;;;;;5122976;27;20384;-80
2021/03/28 09:45:44;;;;;;;9.02;3.35;;;11.40;95.10;;;;;;5131964;27;20039;-80
2021/03/28 09:48:44;;;;;;;8.85;3.42;;;11.30;94.10;;;;;;5108870;27;20036;-78
2021/03/28 09:51:30;;;;;;;9.63;3.17;;;11.20;94.90;;;;;;5138925;27;20038;-83
2021/03/28 09:54:14;;;;;;;9.05;3.97;;;11.20;94.80;;;;;;5111512;27;20497;-79
2021/03/28 09:56:52;;;;;;;7.50;3.67;;;11.20;94.80;;;;;;5109133;27;20122;-78
2021/03/28 09:59:54;;;;;;;10.20;3.72;;;11.20;95.60;;;;;;5131323;27;20039;-82
2021/03/28 10:02:35;;;;;;;10.00;3.97;;;11.30;95.00;;;;;;5111906;27;20452;-79
2021/03/28 10:05:19;;;;;;;10.30;4.05;;;11.30;94.70;;;;;;5113004;27;20038;-79
2021/03/28 10:07:59;;;;;;;7.70;3.30;;;11.30;94.30;;;;;;5116720;27;20035;-81
2021/03/28 10:10:35;;;;;;;6.25;3.00;;;11.30;94.80;;;;;;5130254;27;20027;-77
2021/03/28 10:13:29;;;;;;;7.82;3.63;;;11.40;94.30;;;;;;5112777;27;20472;-79
2021/03/28 10:16:05;;;;;;;6.47;3.00;;;11.40;94.00;;;;;;5106046;27;20472;-77
2021/03/28 10:18:46;;;;;;;11.43;3.67;;;11.40;94.30;;;;;;5130524;27;20480;-81
2021/03/28 10:21:18;;;;;;;6.80;2.90;;;11.40;94.20;;;;;;5119259;27;20046;-82
2021/03/28 10:24:03;;;;;;;8.82;2.95;;;11.40;93.90;;;;;;5126674;27;20138;-77
2021/03/28 10:26:37;;;;;;;9.85;3.33;;;11.40;94.00;;;;;;5107015;27;20561;-79
2021/03/28 10:29:28;;;;;;;6.88;3.42;;;11.30;94.50;;;;;;5134116;27;20047;-78
2021/03/28 10:31:57;;;;;;;6.47;3.45;;;11.30;94.70;;;;;;5128727;27;20113;-78
2021/03/28 10:34:51;;;;;;;8.40;3.65;;;11.30;94.60;;;;;;5098689;28;20059;-77
2021/03/28 10:37:41;;;;;;;7.00;3.42;;;11.10;95.60;;;;;;5105276;28;20118;-79
2021/03/28 10:40:38;;;;;;;6.88;3.42;;;10.90;96.90;;;;;;5149562;27;20041;-78
2021/03/28 10:43:41;;;;;;;7.85;3.75;;;10.80;98.10;;;;;;5128704;27;20054;-81
2021/03/28 10:46:32;;;;;;;10.05;3.70;;;10.60;98.30;;;;;;5122269;28;20111;-80
2021/03/28 10:49:23;;;;;;;9.13;5.00;;;10.40;99.50;;;;;;5113376;28;20032;-77
2021/03/28 10:52:01;;;;;;;9.53;4.60;;;10.30;99.90;;;;;;5126478;28;20035;-78
2021/03/28 10:54:49;;;;;;;5.85;3.38;;;10.30;99.90;;;;;;5112816;28;20744;-83
2021/03/28 10:57:36;;;;;;;9.27;3.97;;;10.20;99.90;;;;;;5128876;28;20042;-81
2021/03/28 11:00:26;;;;;;;7.85;3.78;;;10.10;99.90;;;;;;5106209;28;20035;-81
2021/03/28 11:03:13;;;;;;;9.15;3.45;;;10.00;99.90;;;;;;5127711;27;20031;-78
2021/03/28 11:05:47;;;;;;;;;;;9.90;99.90;;;;;;5104582;28;20085;-81
2021/03/28 11:08:35;;;;;;;10.10;4.07;;;9.80;99.90;;;;;;5104130;28;19916;-78
2021/03/28 11:11:32;;;;;;;9.75;3.97;;;9.80;99.90;;;;;;5113725;27;20042;-79
2021/03/28 11:14:35;;;;;;;7.55;3.47;;;9.70;99.90;;;;;;5124123;28;20058;-80
2021/03/28 11:17:21;;;;;;;8.50;3.72;;;9.80;99.90;;;;;;5121719;28;20074;-82
2021/03/28 11:20:04;;;;;;;6.18;3.90;;;9.70;99.90;;;;;;5111064;28;20393;-81
2021/03/28 11:22:43;;;;;;;9.65;3.90;;;9.70;99.90;;;;;;5130708;28;20046;-78
2021/03/28 11:25:26;;;;;;;10.05;4.00;;;9.60;99.90;;;;;;5123332;27;20045;-80
2021/03/28 11:28:29;;;;;;;6.40;3.70;;;9.50;99.90;;;;;;5135417;27;20071;-82
2021/03/28 11:31:32;;;;;;;9.63;3.88;;;9.50;99.90;;;;;;5103480;28;20051;-81
2021/03/28 11:34:22;;;;;;;8.68;3.53;;;9.50;99.90;;;;;;5115113;27;20035;-80
2021/03/28 11:37:30;;;;;;;11.07;4.32;;;9.50;99.90;;;;;;5112261;28;20118;-81
2021/03/28 11:40:17;;;;;;;8.13;3.97;;;9.40;99.90;;;;;;5090866;28;20047;-81
2021/03/28 11:43:02;;;;;;;7.00;3.90;;;9.40;99.90;;;;;;5104142;28;20119;-79
2021/03/28 11:45:39;;;;;;;10.60;4.63;;;9.30;99.90;;;;;;5140605;27;20031;-82
2021/03/28 11:48:25;;;;;;;10.45;4.15;;;9.30;99.90;;;;;;5119946;27;20373;-80
2021/03/28 11:50:53;;;;;;;12.55;3.90;;;9.20;99.90;;;;;;5098162;27;20116;-79
2021/03/28 11:53:25;;;;;;;9.05;4.05;;;9.20;99.90;;;;;;5145541;27;20114;-80
2021/03/28 11:56:00;;;;;;;13.18;4.53;;;9.10;99.90;;;;;;5120422;27;20385;-80
2021/03/28 11:58:52;;;;;;;13.10;4.05;;;9.20;99.90;;;;;;5131945;27;20035;-80
2021/03/28 12:01:55;;;;;;;10.07;4.18;;;9.00;99.90;;;;;;5128346;27;20472;-78
2021/03/28 12:04:37;;;;;;;8.10;4.82;;;9.10;99.90;;;;;;5098717;27;20055;-81
2021/03/28 12:07:36;;;;;;;13.27;4.35;;;9.10;99.90;;;;;;5118959;27;20043;-81
2021/03/28 12:10:03;;;;;;;9.88;4.50;;;9.00;99.90;;;;;;5119689;27;20116;-79
2021/03/28 12:12:29;;;;;;;10.73;4.18;;;9.10;99.90;;;;;;5105366;27;20056;-78
2021/03/28 12:14:55;;;;;;;12.07;4.28;;;9.10;99.90;;;;;;5141926;27;20042;-80
2021/03/28 12:17:27;;;;;;;13.82;4.70;;;9.10;99.90;;;;;;5072376;28;20043;-78
2021/03/28 12:20:01;;;;;;;16.45;5.38;;;9.10;99.90;;;;;;5141489;27;20035;-80
2021/03/28 12:22:50;;;;;;;10.80;4.85;;;9.10;99.90;;;;;;5132458;27;20043;-80
2021/03/28 12:25:16;;;;;;;8.27;3.95;;;9.10;99.90;;;;;;5132345;27;20069;-81
2021/03/28 12:27:57;;;;;;;14.55;5.38;;;9.10;99.90;;;;;;5111716;27;20070;-77
2021/03/28 12:30:29;;;;;;;10.77;4.75;;;9.10;99.90;;;;;;5139012;27;20074;-76
2021/03/28 12:33:06;;;;;;;9.27;5.07;;;9.10;99.90;;;;;;5133648;27;20035;-76
2021/03/28 12:35:47;;;;;;;10.60;4.53;;;9.00;99.90;;;;;;5136273;27;20041;-81
2021/03/28 12:38:28;;;;;;;15.18;5.32;;;9.00;99.90;;;;;;5138041;27;20035;-79
2021/03/28 12:41:15;;;;;;;15.63;4.80;;;9.10;99.90;;;;;;5128069;27;20083;-82
2021/03/28 12:43:51;;;;;;;11.93;4.68;;;9.00;99.90;;;;;;5143634;27;20039;-81
2021/03/28 12:46:35;;;;;;;15.75;4.80;;;9.10;99.90;;;;;;5145114;27;20027;-78
2021/03/28 12:49:34;;;;;;;10.10;3.88;;;9.00;99.90;;;;;;5119153;27;20415;-78
2021/03/28 12:52:37;;;;;;;10.45;4.20;;;9.00;99.90;;;;;;5132811;27;20118;-79
2021/03/28 12:55:09;;;;;;;13.88;4.30;;;9.00;99.90;;;;;;5132667;27;20043;-79
2021/03/28 12:57:57;;;;;;;12.70;4.75;;;9.00;99.90;;;;;;5129740;27;20031;-78
2021/03/28 13:00:35;;;;;;;12.60;5.63;;;9.30;99.90;;;;;;5079742;27;20061;-77
2021/03/28 13:03:33;;;;;;;8.20;3.97;;;9.10;99.90;;;;;;5111353;27;20091;-81
2021/03/28 13:06:02;;;;;;;11.77;4.85;;;9.00;99.90;;;;;;5084025;27;20122;-77
2021/03/28 13:08:30;;;;;;;11.13;4.90;;;9.10;99.90;;;;;;5141018;27;20035;-81
2021/03/28 13:11:00;;;;;;;10.13;4.18;;;9.20;99.90;;;;;;5131778;27;20053;-79
2021/03/28 13:13:27;;;;;;;11.63;3.85;;;9.20;99.90;;;;;;5117600;27;20061;-79
2021/03/28 13:15:56;;;;;;;9.80;4.25;;;9.20;99.90;;;;;;5109338;27;20035;-80
2021/03/28 13:18:41;;;;;;;11.73;5.00;;;9.30;99.90;;;;;;5113207;27;20066;-79
2021/03/28 13:21:11;;;;;;;12.63;4.85;;;9.30;99.90;;;;;;5108694;27;20114;-81
2021/03/28 13:23:50;;;;;;;9.82;3.78;;;9.40;99.90;;;;;;5112528;27;20084;-76
2021/03/28 13:26:36;;;;;;;15.30;5.35;;;9.40;99.90;;;;;;5123698;27;20086;-75
2021/03/28 13:29:04;;;;;;;16.75;4.95;;;9.50;99.90;;;;;;5131128;27;20035;-77
2021/03/28 13:31:44;;;;;;;14.25;4.63;;;9.50;99.90;;;;;;5125635;27;20185;-80
2021/03/28 13:34:38;;;;;;;15.55;4.00;;;9.40;99.90;;;;;;5128207;27;20444;-85
2021/03/28 13:37:06;;;;;;;11.60;4.35;;;9.30;99.90;;;;;;5127038;27;20720;-79
2021/03/28 13:40:11;;;;;;;8.65;4.20;;;9.20;99.90;;;;;;5115580;27;20042;-79
2021/03/28 13:42:41;;;;;;;10.05;4.47;;;9.20;99.90;;;;;;5118772;27;20186;-79
2021/03/28 13:45:24;;;;;;;10.20;4.13;;;9.30;99.90;;;;;;5127757;27;20043;-82
2021/03/28 13:47:55;;;;;;;9.32;4.40;;;9.30;99.90;;;;;;5117866;27;20031;-82
2021/03/28 13:50:42;;;;;;;10.90;4.70;;;9.40;99.90;;;;;;5100817;27;20079;-78
2021/03/28 13:53:15;;;;;;;10.18;3.58;;;9.70;99.90;;;;;;5125171;27;20114;-80
2021/03/28 13:55:41;;;;;;;11.95;3.75;;;9.50;99.90;;;;;;5137881;27;20043;-80
2021/03/28 13:58:11;;;;;;;13.13;4.05;;;9.50;99.90;;;;;;5123990;27;20035;-81
2021/03/28 14:00:41;;;;;;;12.15;3.95;;;9.60;99.90;;;;;;5112133;27;20051;-79
2021/03/28 14:03:26;;;;;;;10.77;3.70;;;9.60;99.90;;;;;;5125027;27;20099;-80
2021/03/28 14:05:53;;;;;;;12.85;4.53;;;9.70;99.90;;;;;;5121321;27;20031;-77
2021/03/28 14:08:23;;;;;;;14.38;3.97;;;9.70;99.90;;;;;;5122242;27;20056;-79
2021/03/28 14:10:54;;;;;;;9.73;3.70;;;9.70;99.90;;;;;;5127019;27;20046;-78
2021/03/28 14:13:23;;;;;;;12.68;4.13;;;9.60;99.90;;;;;;5106992;28;20048;-79
2021/03/28 14:16:00;;;;;;;12.50;4.07;;;9.70;99.90;;;;;;5107725;28;20053;-79